Etusivu
METAR-TAF:

METAR-TAF

Lentoasemat :

Izumo, Japani

Leveyspiiri: 35-25N, Pituuspiiri: 132-54E, korkeus merenpinnasta: 2 m

Tämänhetkinen sää

Tämä raportti tehtiin 36 minuuttia sitten, kello 04.00 UTC
Tuuli 9 kn pohjoisesta
Lämpötila 30°C
Kosteus 59%
Ilmanpaine 1002 hPa
Näkyvyys 10 km tai enemmän
Muutamia pilviä 3000 ft:n korkeudessa
Hajonneita pilviä

METAR: RJOC 150400Z 36009KT 9999 FEW030 BKN/// 30/21 Q1002

Aika: 13:36 (04:36 UTC)

Sääennuste

Tämä raportti tehtiin 5 tuntia ja 29 minuuttia sitten, kello 23.07 UTC
Ennuste voimassa 15. päivästä klo 00 UTC - 16. päivään klo 06 UTC
Tuuli 6 kn pohjoisesta/koillisesta
Näkyvyys 10 km tai enemmän
Muutamia pilviä 3000 ft:n korkeudessa
Tulossa
15. päivästä klo 12 UTC - 15. päivään klo 15 UTC
Tuuli 5 kn etelästä
Tulossa
16. päivästä klo 00 UTC - 16. päivään klo 03 UTC
Tuuli 16 kn lännestä/lounaasta

TAF: RJOC 142307Z 1500/1606 03006KT 9999 FEW030 BECMG 1512/1515 18005KT BECMG 1600/1603 24016KT

Säähavainnot ja -ennusteet yli 4000 lentoasemalta (METAR- ja TAF-raportit).

Käytössä olevat sääasemat on merkitty karttaan keltaisilla ja punaisilla pisteillä.

Aseta hiiri pisteen päälle nähdäksesi sääaseman nimen.

Klikkaa sitten nähdäksesi säähavainnot ja -ennusteet.

Kartan vaihtaminen: klikkaa mustalla rastilla varustettuja vihreitä pisteitä, niin voit zoomata sisään; viivalla varustettua vihreää pistettä, niin voit zoomata ulos tai vihreitä nuolia, niin pääset viereisille kartoille.


METAR-TAF: